This is the latest recevied weather packets stored in our database for station/object JH0KSP-13. If no packets are shown the sender has not sent any weather packets the latest 1 day(s).
| Time | Temp. | Humidity | Pressure | Rain* | Wind** | Luminosity | Snow |
|---|---|---|---|---|---|---|---|
| 1777984017 | 12.22° C | 83% | 1023.1 hPa | 0 mm | 1.34 m/s, 269° | - | - |
| 1777983015 | 12.22° C | 81% | 1022.9 hPa | 0 mm | 0 m/s | - | - |
| 1777982816 | 12.22° C | 82% | 1022.9 hPa | 0 mm | 0 m/s | - | - |
| 1777982408 | 12.78° C | 82% | 1023 hPa | 0 mm | 0 m/s | - | - |
| 1777981809 | 12.78° C | 81% | 1022.9 hPa | 0 mm | 0.89 m/s, 259° | - | - |
| 1777981615 | 12.78° C | 80% | 1022.9 hPa | 0 mm | 0 m/s | - | - |
| 1777980416 | 12.78° C | 67% | 1022.6 hPa | 0 mm | 2.24 m/s, 210° | - | - |
| 1777979217 | 13.89° C | 71% | 1022.4 hPa | 0 mm | 0.89 m/s, 245° | - | - |
| 1777978016 | 13.89° C | 73% | 1021.9 hPa | 0 mm | 1.34 m/s, 270° | - | - |
| 1777976817 | 15° C | 65% | 1021.7 hPa | 0 mm | 0.89 m/s, 152° | - | - |
| 1777975615 | 15° C | 61% | 1021.4 hPa | 0 mm | 0.89 m/s, 215° | - | - |
| 1777974416 | 16.11° C | 59% | 1021 hPa | 0 mm | 1.34 m/s, 205° | - | - |
| 1777973215 | 16.11° C | 56% | 1020.8 hPa | 0 mm | 4.02 m/s, 163° | - | - |
| 1777972016 | 17.22° C | 56% | 1020.3 hPa | 0 mm | 4.92 m/s, 176° | - | - |
| 1777970817 | 17.78° C | 54% | 1020.1 hPa | 0 mm | 4.92 m/s, 150° | - | - |
| 1777969615 | 17.78° C | 53% | 1020 hPa | 0 mm | 4.02 m/s, 198° | - | - |
| 1777968416 | 18.89° C | 51% | 1019.9 hPa | 0 mm | 4.92 m/s, 153° | - | - |
| 1777967217 | 18.89° C | 50% | 1019.9 hPa | 0 mm | 4.47 m/s, 181° | - | - |
| 1777966017 | 20° C | 49% | 1019.8 hPa | 0 mm | 4.92 m/s, 172° | - | - |
| 1777964815 | 20° C | 46% | 1019.7 hPa | 0 mm | 5.36 m/s, 158° | - | - |
| 1777963615 | 21.11° C | 45% | 1019.4 hPa | 0 mm | 5.36 m/s, 143° | - | - |
| 1777962416 | 21.11° C | 42% | 1018.9 hPa | 0 mm | 4.47 m/s, 186° | - | - |
| 1777961217 | 21.11° C | 39% | 1018.6 hPa | 0 mm | 5.36 m/s, 167° | - | - |
| 1777960015 | 22.22° C | 37% | 1018.5 hPa | 0 mm | 4.92 m/s, 165° | - | - |
| 1777958816 | 22.22° C | 34% | 1018.6 hPa | 0 mm | 3.13 m/s, 155° | - | - |
* Rain latest hour (hover to see other rain measurements)
** Current wind speed in m/s (hover to see current wind gust speed)